Smith Bros No. 2 — WDJ7994 — position and weather

sailwx.info

Track history (hours):
 
Tides and Currents Weather Stations Pressure Air Temp Water Temp Dewpoint Dewpoint Depression Visibility Wind Speed Wind Dir Waves Ship Positions

Smith Bros No. 2

Owner: Korth, Todd, Campbell, CA. More information available from US FCC via Universal Licensing System and Coast Guard Vessel Documentation Center.

Last reported at 2017-Dec-11 16:41 UTC. Time now 2017-Dec-12 15:54 UTC.
Position N 37°18' W 122°38'.

Length 15 m.

Type: Fishing. MMSI: 368012090.

Date/timePositionNaut miles runAvg speedWind from/ knotsBaromVisibWave heightAir tempDewpointWater temp
2017-Dec-11 16:41N 37°18' W 122°38'0 1.6
2017-Dec-11 16:29N 37°18' W 122°39'1 2.3
2017-Dec-11 15:58N 37°20' W 122°39'3 6.1
2017-Dec-11 15:30N 37°22' W 122°37'4 7.0
2017-Dec-11 15:00N 37°25' W 122°34'4 7.0
2017-Dec-11 14:30N 37°27' W 122°31'3 6.0
2017-Dec-11 14:00N 37°30' W 122°29'0 0.0
2017-Dec-11 02:55N 37°30' W 122°29'2 4.8
2017-Dec-11 02:30N 37°28' W 122°30'3 6.4
2017-Dec-11 02:00N 37°27' W 122°34'3 6.4
2017-Dec-11 01:29N 37°26' W 122°38'8 1.2
2017-Dec-10 19:00N 37°30' W 122°46'4 7.3
2017-Dec-10 18:25N 37°32' W 122°41'3 7.4
2017-Dec-10 18:01N 37°33' W 122°38'3 6.2
2017-Dec-10 17:30N 37°34' W 122°34'2 3.8
2017-Dec-10 17:00N 37°33' W 122°36'1 2.3
2017-Dec-10 16:24N 37°32' W 122°38'1 1.6
2017-Dec-10 16:00N 37°32' W 122°38'2 4.0
2017-Dec-10 15:27N 37°30' W 122°39'1 2.6
2017-Dec-10 15:00N 37°29' W 122°38'1 2.0
2017-Dec-10 14:29N 37°28' W 122°38'2 4.8
2017-Dec-10 14:00N 37°28' W 122°35'3 7.0
2017-Dec-10 13:30N 37°28' W 122°31'3 5.1
2017-Dec-10 12:59N 37°30' W 122°29'  
2017-Dec-03 03:10N 37°30' W 122°29'1 5.2
2017-Dec-03 02:56N 37°29' W 122°29'6 6.7
2017-Dec-03 02:04N 37°27' W 122°36'0 6.4
2017-Dec-03 02:00N 37°27' W 122°36'3 6.8
2017-Dec-03 01:30N 37°27' W 122°41'4 7.1
2017-Dec-03 01:00N 37°28' W 122°45'1 2.6
2017-Dec-03 00:30N 37°27' W 122°45'2 3.3
2017-Dec-02 23:59N 37°25' W 122°45'1 3.0
2017-Dec-02 23:30N 37°26' W 122°47'1 2.6
2017-Dec-02 23:00N 37°25' W 122°46'1 1.8
2017-Dec-02 22:28N 37°25' W 122°47'2 3.3
2017-Dec-02 21:58N 37°27' W 122°46'1 2.8
2017-Dec-02 21:29N 37°28' W 122°45'2 2.2
2017-Dec-02 20:47N 37°26' W 122°45'12 0.5
2017-Dec-01 21:27N 37°34' W 122°33'0 0.4
2017-Dec-01 20:34N 37°34' W 122°33'6 2.4
2017-Dec-01 17:54N 37°30' W 122°39'  
Track history (hours):
 
Tides and Currents Weather Stations Pressure Air Temp Water Temp Dewpoint Dewpoint Depression Visibility Wind Speed Wind Dir Waves Ship Positions

Smith Bros No. 2

Owner: Korth, Todd, Campbell, CA. More information available from US FCC via Universal Licensing System and Coast Guard Vessel Documentation Center.

Last reported at 2017-Dec-11 16:41 UTC. Time now 2017-Dec-12 15:54 UTC.
Position N 37°18' W 122°38'.

Length 15 m.

Type: Fishing. MMSI: 368012090.

Date/timePositionNaut miles runAvg speedWind from/ knotsBaromVisibWave heightAir tempDewpointWater temp
2017-Dec-11 16:41N 37°18' W 122°38'0 1.6
2017-Dec-11 16:29N 37°18' W 122°39'1 2.3
2017-Dec-11 15:58N 37°20' W 122°39'3 6.1
2017-Dec-11 15:30N 37°22' W 122°37'4 7.0
2017-Dec-11 15:00N 37°25' W 122°34'4 7.0
2017-Dec-11 14:30N 37°27' W 122°31'3 6.0
2017-Dec-11 14:00N 37°30' W 122°29'0 0.0
2017-Dec-11 02:55N 37°30' W 122°29'2 4.8
2017-Dec-11 02:30N 37°28' W 122°30'3 6.4
2017-Dec-11 02:00N 37°27' W 122°34'3 6.4
2017-Dec-11 01:29N 37°26' W 122°38'8 1.2
2017-Dec-10 19:00N 37°30' W 122°46'4 7.3
2017-Dec-10 18:25N 37°32' W 122°41'3 7.4
2017-Dec-10 18:01N 37°33' W 122°38'3 6.2
2017-Dec-10 17:30N 37°34' W 122°34'2 3.8
2017-Dec-10 17:00N 37°33' W 122°36'1 2.3
2017-Dec-10 16:24N 37°32' W 122°38'1 1.6
2017-Dec-10 16:00N 37°32' W 122°38'2 4.0
2017-Dec-10 15:27N 37°30' W 122°39'1 2.6
2017-Dec-10 15:00N 37°29' W 122°38'1 2.0
2017-Dec-10 14:29N 37°28' W 122°38'2 4.8
2017-Dec-10 14:00N 37°28' W 122°35'3 7.0
2017-Dec-10 13:30N 37°28' W 122°31'3 5.1
2017-Dec-10 12:59N 37°30' W 122°29'  
2017-Dec-03 03:10N 37°30' W 122°29'1 5.2
2017-Dec-03 02:56N 37°29' W 122°29'6 6.7
2017-Dec-03 02:04N 37°27' W 122°36'0 6.4
2017-Dec-03 02:00N 37°27' W 122°36'3 6.8
2017-Dec-03 01:30N 37°27' W 122°41'4 7.1
2017-Dec-03 01:00N 37°28' W 122°45'1 2.6
2017-Dec-03 00:30N 37°27' W 122°45'2 3.3
2017-Dec-02 23:59N 37°25' W 122°45'1 3.0
2017-Dec-02 23:30N 37°26' W 122°47'1 2.6
2017-Dec-02 23:00N 37°25' W 122°46'1 1.8
2017-Dec-02 22:28N 37°25' W 122°47'2 3.3
2017-Dec-02 21:58N 37°27' W 122°46'1 2.8
2017-Dec-02 21:29N 37°28' W 122°45'2 2.2
2017-Dec-02 20:47N 37°26' W 122°45'12 0.5
2017-Dec-01 21:27N 37°34' W 122°33'0 0.4
2017-Dec-01 20:34N 37°34' W 122°33'6 2.4
2017-Dec-01 17:54N 37°30' W 122°39'  

Dump ship's entire track history